createdAt,value
2023-03-26T00:00:26.628Z,52.16
2023-03-26T00:02:57.323Z,53.09
2023-03-26T00:05:27.592Z,53.08
2023-03-26T00:07:57.867Z,53.18
2023-03-26T00:10:28.367Z,53.78
2023-03-26T00:13:01.497Z,53.73
2023-03-26T00:15:31.724Z,54.11
2023-03-26T00:18:03.124Z,54.87
2023-03-26T00:20:34.905Z,54.95
2023-03-26T00:23:05.254Z,55.34
2023-03-26T00:25:35.469Z,55.29
2023-03-26T00:28:09.127Z,55.67
2023-03-26T00:30:41.908Z,55.53
2023-03-26T00:33:17.446Z,56.28
2023-03-26T00:35:48.928Z,56.22
2023-03-26T00:38:19.438Z,56.40
2023-03-26T00:40:51.232Z,56.68
2023-03-26T00:43:26.709Z,56.38
2023-03-26T00:45:58.596Z,56.31
2023-03-26T00:48:43.940Z,55.66
2023-03-26T00:51:18.317Z,55.60
2023-03-26T00:53:50.064Z,55.22
2023-03-26T00:56:21.471Z,54.58
2023-03-26T00:58:57.895Z,54.54
2023-03-26T01:01:30.898Z,54.92
2023-03-26T01:04:24.422Z,54.79
2023-03-26T01:06:55.687Z,55.32
2023-03-26T01:09:34.705Z,55.11
2023-03-26T01:12:08.798Z,55.55
2023-03-26T01:14:41.821Z,56.00
2023-03-26T01:17:12.677Z,56.00
2023-03-26T01:19:51.439Z,56.28
2023-03-26T01:22:24.714Z,56.42
2023-03-26T01:24:57.753Z,57.08
2023-03-26T01:27:41.833Z,56.83
2023-03-26T01:30:20.730Z,57.10
2023-03-26T01:33:00.914Z,57.79
2023-03-26T01:35:40.582Z,57.38
2023-03-26T01:38:25.894Z,57.07
2023-03-26T01:41:05.363Z,57.46
2023-03-26T01:43:42.418Z,56.92
2023-03-26T01:46:14.578Z,56.98
2023-03-26T01:48:47.107Z,57.26
2023-03-26T01:51:28.956Z,57.31
2023-03-26T01:54:01.061Z,57.14
2023-03-26T01:56:43.456Z,57.43
2023-03-26T01:59:27.391Z,57.90
2023-03-26T02:02:07.464Z,57.89
2023-03-26T02:04:45.601Z,58.37
2023-03-26T02:07:21.157Z,57.87
2023-03-26T02:09:57.198Z,57.99
2023-03-26T02:12:32.237Z,57.82
2023-03-26T02:15:04.099Z,57.31
2023-03-26T02:17:34.495Z,57.23
2023-03-26T02:20:11.071Z,57.09
2023-03-26T02:22:46.000Z,57.39
2023-03-26T02:25:22.255Z,57.46
2023-03-26T02:27:56.347Z,57.46
2023-03-26T02:30:29.966Z,57.32
2023-03-26T02:33:03.764Z,57.13
2023-03-26T02:35:34.140Z,57.08
2023-03-26T02:38:04.829Z,57.32
2023-03-26T02:40:35.186Z,57.65
2023-03-26T02:43:08.371Z,57.89
2023-03-26T02:45:38.784Z,57.79
2023-03-26T02:48:09.609Z,58.17
2023-03-26T02:50:39.977Z,58.18
2023-03-26T02:53:12.042Z,58.33
2023-03-26T02:55:42.306Z,58.19
2023-03-26T02:58:17.689Z,58.18
2023-03-26T03:00:48.023Z,57.93
2023-03-26T03:03:19.386Z,58.16
2023-03-26T03:05:49.826Z,57.94
2023-03-26T03:08:20.393Z,57.75
2023-03-26T03:10:59.420Z,57.72
2023-03-26T03:13:32.692Z,57.83
2023-03-26T03:16:03.095Z,57.89
2023-03-26T03:18:33.366Z,57.64
2023-03-26T03:21:08.847Z,57.68
2023-03-26T03:23:39.247Z,57.54
2023-03-26T03:26:16.165Z,57.01
2023-03-26T03:28:49.045Z,56.86
2023-03-26T03:31:22.766Z,56.70
2023-03-26T03:33:53.252Z,56.60
2023-03-26T03:36:28.053Z,56.58
2023-03-26T03:39:02.832Z,56.59
2023-03-26T03:41:33.323Z,56.81
2023-03-26T03:44:06.405Z,56.80
2023-03-26T03:46:36.843Z,56.65
2023-03-26T03:49:07.095Z,57.17
2023-03-26T03:51:37.392Z,57.28
2023-03-26T03:54:08.728Z,56.99
2023-03-26T03:56:39.336Z,57.35
2023-03-26T03:59:12.383Z,57.24
2023-03-26T04:01:43.336Z,57.18
2023-03-26T04:04:13.582Z,57.39
2023-03-26T04:06:43.872Z,57.75
2023-03-26T04:09:14.146Z,57.85
2023-03-26T04:11:44.438Z,58.02
2023-03-26T04:14:17.285Z,58.18
2023-03-26T04:16:49.241Z,58.63
2023-03-26T04:19:19.596Z,58.49
2023-03-26T04:21:49.882Z,58.79
2023-03-26T04:24:20.775Z,59.49
2023-03-26T04:26:51.381Z,60.13
2023-03-26T04:29:28.129Z,60.15
2023-03-26T04:32:06.747Z,60.51
2023-03-26T04:34:37.346Z,60.81
2023-03-26T04:37:07.898Z,60.68
2023-03-26T04:39:39.263Z,60.80
2023-03-26T04:42:12.967Z,60.72
2023-03-26T04:44:45.752Z,60.96
2023-03-26T04:47:16.181Z,61.04
2023-03-26T04:49:46.538Z,61.43
2023-03-26T04:52:17.843Z,61.83
2023-03-26T04:54:49.562Z,61.74
2023-03-26T04:57:24.602Z,61.74
2023-03-26T04:59:57.526Z,62.34
2023-03-26T05:02:27.945Z,62.47
2023-03-26T05:04:58.252Z,62.76
2023-03-26T05:07:28.475Z,62.12
2023-03-26T05:10:03.606Z,61.54
2023-03-26T05:12:33.990Z,61.31
2023-03-26T05:15:07.594Z,60.27
2023-03-26T05:17:41.805Z,59.88
2023-03-26T05:20:21.087Z,58.88
2023-03-26T05:22:52.807Z,58.52
2023-03-26T05:25:23.360Z,57.81
2023-03-26T05:27:53.610Z,57.50
2023-03-26T05:30:27.224Z,57.49
2023-03-26T05:32:57.648Z,57.31
2023-03-26T05:35:27.935Z,57.02
2023-03-26T05:37:58.155Z,57.00
2023-03-26T05:40:28.446Z,56.13
2023-03-26T05:42:58.762Z,55.16
2023-03-26T05:45:31.867Z,54.21
2023-03-26T05:48:02.312Z,53.26
2023-03-26T05:50:32.629Z,52.36
2023-03-26T05:53:02.860Z,52.14
2023-03-26T05:55:33.605Z,51.09
2023-03-26T05:58:04.046Z,50.60
2023-03-26T06:00:39.142Z,49.83
2023-03-26T06:03:13.202Z,49.06
2023-03-26T06:05:43.700Z,48.61
2023-03-26T06:08:14.239Z,48.69
2023-03-26T06:10:45.220Z,47.90
2023-03-26T06:13:16.519Z,46.73
2023-03-26T06:15:49.398Z,46.89
2023-03-26T06:18:20.857Z,45.48
2023-03-26T06:20:51.361Z,45.18
2023-03-26T06:23:23.080Z,44.85
2023-03-26T06:25:53.289Z,43.52
2023-03-26T06:28:23.524Z,43.64
2023-03-26T06:30:57.052Z,43.46
2023-03-26T06:33:27.646Z,42.52
2023-03-26T06:35:58.206Z,42.29
2023-03-26T06:38:28.665Z,41.39
2023-03-26T06:41:05.687Z,41.12
2023-03-26T06:43:37.264Z,41.47
2023-03-26T06:46:10.307Z,41.13
2023-03-26T06:48:41.025Z,40.38
2023-03-26T06:51:11.415Z,40.02
2023-03-26T06:53:41.792Z,40.57
2023-03-26T06:56:13.055Z,40.04
2023-03-26T06:58:48.249Z,39.95
2023-03-26T07:01:21.257Z,38.95
2023-03-26T07:03:51.879Z,39.23
2023-03-26T07:06:26.140Z,39.08
2023-03-26T07:08:57.629Z,38.38
2023-03-26T07:11:29.160Z,39.13
2023-03-26T07:13:59.773Z,38.46
2023-03-26T07:16:34.811Z,38.96
2023-03-26T07:19:07.175Z,39.30
2023-03-26T07:21:41.167Z,38.94
2023-03-26T07:24:14.103Z,38.76
2023-03-26T07:26:54.915Z,38.99
2023-03-26T07:29:36.681Z,39.31
2023-03-26T07:32:19.098Z,38.07
2023-03-26T07:34:56.330Z,38.92
2023-03-26T07:37:42.244Z,38.59
2023-03-26T07:40:23.426Z,38.77
2023-03-26T07:43:06.283Z,38.82
2023-03-26T07:45:42.591Z,38.23
2023-03-26T07:48:20.496Z,37.52
2023-03-26T07:50:52.175Z,37.88
2023-03-26T07:53:23.524Z,37.94
2023-03-26T07:56:04.554Z,38.01
2023-03-26T07:58:48.354Z,36.00
2023-03-26T08:01:28.283Z,35.74
2023-03-26T08:04:27.984Z,35.66
2023-03-26T08:07:03.654Z,35.51
2023-03-26T08:09:42.856Z,35.00
2023-03-26T08:12:21.477Z,34.46
2023-03-26T08:14:59.898Z,36.29
2023-03-26T08:17:38.571Z,35.49
2023-03-26T08:20:25.364Z,35.80
2023-03-26T08:23:04.861Z,34.60
2023-03-26T08:25:40.590Z,35.62
2023-03-26T08:28:23.954Z,35.36
2023-03-26T08:30:57.686Z,34.75
2023-03-26T08:33:31.360Z,35.73
2023-03-26T08:36:04.322Z,35.30
2023-03-26T08:38:36.702Z,35.16
2023-03-26T08:41:42.827Z,33.91
2023-03-26T08:44:52.480Z,33.58
2023-03-26T08:47:53.185Z,34.30
2023-03-26T08:51:10.881Z,34.12
2023-03-26T08:54:14.191Z,33.29
2023-03-26T08:56:55.999Z,33.41
2023-03-26T08:59:53.676Z,33.00
2023-03-26T09:02:54.261Z,33.32
2023-03-26T09:05:54.998Z,32.46
2023-03-26T09:09:00.538Z,32.44
2023-03-26T09:11:51.190Z,31.34
2023-03-26T09:14:54.933Z,32.01
2023-03-26T09:17:58.233Z,31.33
2023-03-26T09:20:56.149Z,32.48
2023-03-26T09:23:56.283Z,33.20
2023-03-26T09:26:40.229Z,32.74
2023-03-26T09:29:43.299Z,32.90
2023-03-26T09:32:59.375Z,32.63
2023-03-26T09:35:57.228Z,32.96
2023-03-26T09:38:45.062Z,33.01
2023-03-26T09:41:20.957Z,33.94
2023-03-26T09:44:25.304Z,34.82
2023-03-26T09:47:15.046Z,35.25
2023-03-26T09:49:56.644Z,35.34
2023-03-26T09:52:54.319Z,35.58
2023-03-26T09:55:48.809Z,34.55
2023-03-26T09:58:42.409Z,34.71
2023-03-26T10:01:20.789Z,34.96
2023-03-26T10:04:00.764Z,35.61
2023-03-26T10:06:54.976Z,35.43
2023-03-26T10:09:39.519Z,36.39
2023-03-26T10:12:21.299Z,36.11
2023-03-26T10:15:04.438Z,36.76
2023-03-26T10:17:49.581Z,36.15
2023-03-26T10:20:40.780Z,36.44
2023-03-26T10:23:27.592Z,36.74
2023-03-26T10:26:07.325Z,35.78
2023-03-26T10:28:51.514Z,36.57
2023-03-26T10:31:34.496Z,35.87
2023-03-26T10:34:28.708Z,36.35
2023-03-26T10:37:09.313Z,36.04
2023-03-26T10:40:00.813Z,35.42
2023-03-26T10:42:52.938Z,35.69
2023-03-26T10:45:40.221Z,36.74
2023-03-26T10:48:27.532Z,36.02
2023-03-26T10:51:24.953Z,35.49
2023-03-26T10:53:59.069Z,36.03
2023-03-26T10:56:35.839Z,35.36
2023-03-26T10:59:09.944Z,35.68
2023-03-26T11:01:53.041Z,35.93
2023-03-26T11:04:35.856Z,35.66
2023-03-26T11:07:16.811Z,36.54
2023-03-26T11:09:54.632Z,36.52
2023-03-26T11:12:36.455Z,36.06
2023-03-26T11:15:22.841Z,35.06
2023-03-26T11:18:04.873Z,35.04
2023-03-26T11:20:40.609Z,34.21
2023-03-26T11:23:26.946Z,34.20
2023-03-26T11:26:12.093Z,33.95
2023-03-26T11:29:32.217Z,33.65
2023-03-26T11:32:08.375Z,33.31
2023-03-26T11:34:43.432Z,33.96
2023-03-26T11:37:21.897Z,33.39
2023-03-26T11:39:56.596Z,33.21
2023-03-26T11:42:29.991Z,32.48
2023-03-26T11:45:09.090Z,33.48
2023-03-26T11:47:46.651Z,33.68
2023-03-26T11:50:24.453Z,32.26
2023-03-26T11:52:54.775Z,32.48
2023-03-26T11:55:30.055Z,31.43
2023-03-26T11:58:05.354Z,31.76
2023-03-26T12:00:40.542Z,32.28
2023-03-26T12:03:21.048Z,32.00
2023-03-26T12:05:53.840Z,32.12
2023-03-26T12:08:36.878Z,32.92
2023-03-26T12:11:11.264Z,31.65
2023-03-26T12:13:44.863Z,31.68
2023-03-26T12:16:19.998Z,31.96
2023-03-26T12:19:05.673Z,32.31
2023-03-26T12:21:48.574Z,31.82
2023-03-26T12:24:31.260Z,30.56
2023-03-26T12:27:06.358Z,30.22
2023-03-26T12:29:37.160Z,29.65
2023-03-26T12:32:17.196Z,30.04
2023-03-26T12:34:47.990Z,30.77
2023-03-26T12:37:49.270Z,30.62
2023-03-26T12:40:36.126Z,30.54
2023-03-26T12:44:53.965Z,29.48
2023-03-26T12:47:46.055Z,28.68
2023-03-26T12:48:58.403Z,28.76
2023-03-26T12:51:46.048Z,29.27
2023-03-26T12:54:29.015Z,28.21
2023-03-26T12:57:17.204Z,28.97
2023-03-26T13:00:02.105Z,28.62
2023-03-26T13:02:53.714Z,28.93
2023-03-26T13:05:40.133Z,28.95
2023-03-26T13:08:32.905Z,29.69
2023-03-26T13:11:13.820Z,29.90
2023-03-26T13:14:13.776Z,29.67
2023-03-26T13:16:51.521Z,29.31
2023-03-26T13:19:30.036Z,29.35
2023-03-26T13:22:18.141Z,29.67
2023-03-26T13:24:56.724Z,28.38
2023-03-26T13:27:40.075Z,29.82
2023-03-26T13:30:23.567Z,31.94
2023-03-26T13:33:05.713Z,32.86
2023-03-26T13:35:42.728Z,33.97
2023-03-26T13:38:23.728Z,33.42
2023-03-26T13:41:05.021Z,33.52
2023-03-26T13:43:47.803Z,33.45
2023-03-26T13:46:29.145Z,33.29
2023-03-26T13:49:04.682Z,32.97
2023-03-26T13:51:43.162Z,32.98
2023-03-26T13:54:26.910Z,34.15
2023-03-26T13:57:02.953Z,33.42
2023-03-26T13:59:39.738Z,33.15
2023-03-26T14:02:18.636Z,33.73
2023-03-26T14:04:52.736Z,32.80
2023-03-26T14:07:28.237Z,32.78
2023-03-26T14:10:08.109Z,33.16
2023-03-26T14:12:51.998Z,32.41
2023-03-26T14:15:28.844Z,32.27
2023-03-26T14:18:09.693Z,31.85
2023-03-26T14:21:09.096Z,31.15
2023-03-26T14:24:02.137Z,30.81
2023-03-26T14:26:52.164Z,31.44
2023-03-26T14:29:57.834Z,32.02
2023-03-26T14:33:01.356Z,32.67
2023-03-26T14:35:38.875Z,32.70
2023-03-26T14:38:35.922Z,32.12
2023-03-26T14:41:18.790Z,32.17
2023-03-26T14:44:24.618Z,33.08
2023-03-26T14:47:14.573Z,32.86
2023-03-26T14:50:31.687Z,32.26
2023-03-26T14:53:06.277Z,32.75
2023-03-26T14:56:04.706Z,33.01
2023-03-26T14:59:05.832Z,32.96
2023-03-26T15:02:07.340Z,33.49
2023-03-26T15:05:11.552Z,34.18
2023-03-26T15:08:15.266Z,33.98
2023-03-26T15:11:00.896Z,34.24
2023-03-26T15:13:51.965Z,34.41
2023-03-26T15:16:53.816Z,34.50
2023-03-26T15:19:53.993Z,34.44
2023-03-26T15:22:54.221Z,34.69
2023-03-26T15:26:08.278Z,34.36
2023-03-26T15:29:06.510Z,34.13
2023-03-26T15:32:03.109Z,34.60
2023-03-26T15:35:04.316Z,33.49
2023-03-26T15:38:11.332Z,33.61
2023-03-26T15:40:54.491Z,34.42
2023-03-26T15:43:33.183Z,33.88
2023-03-26T15:46:29.237Z,34.04
2023-03-26T15:49:14.842Z,34.45
2023-03-26T15:51:54.015Z,34.30
2023-03-26T15:54:29.168Z,35.08
2023-03-26T15:57:12.606Z,34.99
2023-03-26T15:59:59.452Z,36.06
2023-03-26T16:02:39.177Z,38.12
2023-03-26T16:05:33.193Z,36.58
2023-03-26T16:08:14.987Z,37.37
2023-03-26T16:10:54.033Z,37.66
2023-03-26T16:13:34.399Z,38.09
2023-03-26T16:16:48.719Z,37.95
2023-03-26T16:19:52.265Z,38.46
2023-03-26T16:22:56.933Z,38.44
2023-03-26T16:25:33.894Z,38.50
2023-03-26T16:28:34.223Z,39.14
2023-03-26T16:31:38.659Z,39.38
2023-03-26T16:34:28.660Z,40.15
2023-03-26T16:37:02.632Z,40.18
2023-03-26T16:39:44.822Z,40.94
2023-03-26T16:42:37.534Z,42.28
2023-03-26T16:45:30.576Z,42.78
2023-03-26T16:48:20.062Z,43.35
2023-03-26T16:50:58.024Z,44.20
2023-03-26T16:53:43.714Z,45.00
2023-03-26T16:56:21.566Z,45.21
2023-03-26T16:58:59.524Z,45.15
2023-03-26T17:01:46.130Z,45.80
2023-03-26T17:04:24.234Z,46.43
2023-03-26T17:07:19.802Z,46.19
2023-03-26T17:10:10.586Z,46.51
2023-03-26T17:12:46.882Z,46.54
2023-03-26T17:18:46.446Z,47.08
2023-03-26T17:21:20.926Z,47.50
2023-03-26T17:24:15.279Z,47.60
2023-03-26T17:27:05.325Z,48.07
2023-03-26T17:29:59.811Z,48.89
2023-03-26T18:07:48.610Z,49.66
2023-03-26T18:10:37.580Z,49.92
2023-03-26T18:13:22.987Z,50.33
2023-03-26T18:16:02.645Z,50.66
2023-03-26T18:18:37.056Z,51.40
2023-03-26T18:21:09.509Z,51.27
2023-03-26T18:23:50.035Z,51.86
2023-03-26T18:26:24.520Z,51.99
2023-03-26T18:28:56.683Z,52.04
2023-03-26T18:31:29.179Z,51.98
2023-03-26T18:34:05.533Z,52.42
2023-03-26T18:36:38.821Z,52.62
2023-03-26T18:39:17.110Z,52.51
2023-03-26T18:41:48.125Z,52.54
2023-03-26T18:44:21.977Z,52.34
2023-03-26T18:46:57.192Z,52.50
2023-03-26T18:49:29.987Z,52.18
2023-03-26T18:52:02.329Z,52.24
2023-03-26T18:54:41.588Z,52.30
2023-03-26T18:57:15.630Z,52.79
2023-03-26T18:59:49.065Z,52.49
2023-03-26T19:02:20.795Z,52.79
2023-03-26T19:04:54.631Z,52.92
2023-03-26T19:07:29.611Z,52.62
2023-03-26T19:10:04.591Z,53.06
2023-03-26T19:12:37.595Z,53.33
2023-03-26T19:15:10.884Z,53.29
2023-03-26T19:17:45.236Z,53.58
2023-03-26T19:20:20.857Z,53.74
2023-03-26T19:22:52.379Z,53.65
2023-03-26T19:25:31.244Z,53.71
2023-03-26T19:28:02.186Z,53.79
2023-03-26T19:30:35.241Z,54.46
2023-03-26T19:34:35.059Z,54.18
2023-03-26T19:37:19.842Z,54.41
2023-03-26T19:39:53.400Z,54.91
2023-03-26T19:42:42.983Z,54.80
2023-03-26T19:45:19.785Z,55.13
2023-03-26T19:48:00.510Z,55.17
2023-03-26T19:50:42.300Z,55.20
2023-03-26T19:53:24.556Z,55.01
2023-03-26T19:56:00.109Z,55.09
2023-03-26T19:58:30.987Z,55.15
2023-03-26T20:04:44.571Z,55.89
2023-03-26T20:07:35.586Z,55.26
2023-03-26T20:10:08.398Z,55.36
2023-03-26T20:12:41.342Z,55.36
2023-03-26T20:15:20.371Z,55.94
2023-03-26T20:17:54.856Z,55.83
2023-03-26T20:20:27.681Z,55.67
2023-03-26T20:23:01.786Z,55.64
2023-03-26T20:25:36.862Z,55.96
2023-03-26T20:28:09.132Z,55.54
2023-03-26T20:30:39.689Z,56.11
2023-03-26T20:33:18.104Z,56.10
2023-03-26T20:35:48.895Z,55.98
2023-03-26T20:38:36.613Z,55.70
2023-03-26T20:41:09.951Z,55.57
2023-03-26T20:43:40.467Z,55.14
2023-03-26T20:46:15.455Z,55.28
2023-03-26T20:48:45.818Z,55.49
2023-03-26T20:51:17.453Z,55.48
2023-03-26T20:53:51.044Z,55.53
2023-03-26T20:56:23.672Z,55.57
2023-03-26T21:01:31.684Z,55.07
2023-03-26T21:04:04.483Z,55.43
2023-03-26T21:06:35.018Z,55.32
2023-03-26T21:09:11.732Z,55.11
2023-03-26T21:11:53.007Z,54.66
2023-03-26T21:14:26.124Z,54.38
2023-03-26T21:16:57.449Z,53.58
2023-03-26T21:19:28.670Z,53.99
2023-03-26T22:43:52.273Z,50.64
2023-03-26T22:46:22.948Z,50.20
2023-03-26T22:48:53.327Z,50.33
2023-03-26T22:51:23.642Z,49.87
2023-03-26T22:53:54.282Z,50.32
2023-03-26T22:56:24.633Z,50.01
2023-03-26T22:58:58.102Z,50.33
2023-03-26T23:01:28.393Z,50.07
2023-03-26T23:03:58.943Z,49.62
2023-03-26T23:06:29.294Z,49.99
2023-03-26T23:08:59.670Z,50.28
2023-03-26T23:11:31.352Z,50.22
2023-03-26T23:14:05.000Z,50.36
2023-03-26T23:16:35.274Z,51.15
2023-03-26T23:19:06.045Z,50.70
2023-03-26T23:21:36.904Z,52.00
2023-03-26T23:24:08.392Z,52.50
2023-03-26T23:26:49.520Z,53.12
2023-03-26T23:29:23.646Z,53.63
2023-03-26T23:31:56.356Z,53.86
2023-03-26T23:34:26.754Z,55.00
2023-03-26T23:36:58.266Z,54.74
2023-03-26T23:39:28.774Z,55.57
2023-03-26T23:41:59.082Z,56.09
2023-03-26T23:44:34.772Z,56.58
2023-03-26T23:47:10.625Z,57.25
2023-03-26T23:49:41.590Z,58.19
2023-03-26T23:52:11.950Z,59.15
2023-03-26T23:54:42.780Z,59.87
2023-03-26T23:57:14.024Z,60.46
2023-03-26T23:59:47.105Z,60.75
